Weather reports worldwide

Advertisment
Lons-Le-Saunier, France (7390): temperature & dewpoint: 12.09.2019 06:00:00 - 18.09.2019 06:00:00 (CEST)Lons-Le-Saunier, France (7390): wind speed & gusts: 12.09.2019 06:00:00 - 18.09.2019 06:00:00 (CEST)Lons-Le-Saunier, France (7390): wind direction: 12.09.2019 06:00:00 - 18.09.2019 06:00:00 (CEST)Lons-Le-Saunier, France (7390): precipitation: 12.09.2019 06:00:00 - 18.09.2019 06:00:00 (CEST)
Date & Time tt [°C] td [°C] ff [km/h] ff [kn] fx [km/h] fx [kn] dd rr [mm]
18.09.2019 06:00:00 - - - - - - - -
18.09.2019 05:00:00 12,6 10,7 11 6 16 9 N 0,0
18.09.2019 04:00:00 13,2 11,1 9 5 21 11 NNW 0,0
18.09.2019 03:00:00 13,8 11,1 11 6 26 14 N 0,0
18.09.2019 02:00:00 14,6 10,6 15 8 29 16 N -
18.09.2019 01:00:00 15,0 10,8 13 7 24 13 N 0,0
18.09.2019 00:00:00 17,2 11,0 15 8 26 14 N 0,0
17.09.2019 23:00:00 17,8 11,6 15 8 31 17 NNE 0,0
17.09.2019 22:00:00 18,4 12,2 16 9 41 22 NNE 0,0
17.09.2019 21:00:00 19,6 13,1 21 11 35 19 NNE 0,0
17.09.2019 20:00:00 21,2 13,6 21 11 37 20 N -
17.09.2019 19:00:00 23,5 13,7 15 8 29 16 N 0,0
17.09.2019 18:00:00 25,0 12,9 16 9 29 16 N 0,0
17.09.2019 17:00:00 25,9 12,0 15 8 28 15 N 0,0
17.09.2019 16:00:00 26,2 11,9 11 6 31 17 NNW 0,0
17.09.2019 15:00:00 25,8 13,0 16 9 29 16 N 0,0
17.09.2019 14:00:00 25,3 13,5 16 9 26 14 N -
17.09.2019 13:00:00 24,4 13,0 16 9 28 15 N 0,0
17.09.2019 12:00:00 22,4 12,3 11 6 21 11 NW 0,0
17.09.2019 11:00:00 20,0 12,7 8 4 11 6 NW 0,0
17.09.2019 10:00:00 18,9 13,5 4 2 8 4 WNW 0,0
17.09.2019 09:00:00 15,1 11,9 5 3 8 4 NW 0,0
17.09.2019 08:00:00 14,5 10,9 5 3 8 4 NNW -
17.09.2019 07:00:00 13,9 10,7 5 3 9 5 E 0,0
17.09.2019 06:00:00 15,3 10,7 0 0 9 5 N 0,0
17.09.2019 05:00:00 15,7 11,1 5 3 9 5 N 0,0
17.09.2019 04:00:00 16,9 11,4 5 3 8 4 E 0,0
17.09.2019 03:00:00 17,3 11,6 4 2 11 6 E 0,0
17.09.2019 02:00:00 18,0 11,3 5 3 8 4 NNE -
17.09.2019 01:00:00 19,7 12,0 5 3 26 14 SE 0,0
17.09.2019 00:00:00 21,2 10,1 13 7 26 14 NNE 0,0
16.09.2019 23:00:00 21,9 10,7 13 7 29 16 NNE 0,0
16.09.2019 22:00:00 21,9 15,7 8 4 15 8 N 0,0
16.09.2019 21:00:00 23,6 15,6 8 4 9 5 ESE 0,0
16.09.2019 20:00:00 25,5 15,8 4 2 9 5 SE -
16.09.2019 19:00:00 28,3 14,9 4 2 8 4 ENE 0,0
16.09.2019 18:00:00 29,8 14,4 4 2 13 7 NNE 0,0
16.09.2019 17:00:00 29,8 15,1 9 5 16 9 NW 0,0
16.09.2019 16:00:00 30,3 16,7 4 2 15 8 SE 0,0
16.09.2019 15:00:00 28,9 14,7 5 3 16 9 SW 0,0
16.09.2019 14:00:00 28,1 15,4 8 4 18 10 SW -
16.09.2019 13:00:00 26,7 14,8 11 6 22 12 SW 0,0
16.09.2019 12:00:00 25,5 15,2 8 4 16 9 WSW 0,0
16.09.2019 11:00:00 24,2 15,1 8 4 13 7 WSW 0,0
16.09.2019 10:00:00 23,2 15,0 4 2 13 7 SSE 0,0
16.09.2019 09:00:00 20,1 14,7 4 2 15 8 E 0,0
16.09.2019 08:00:00 17,9 13,8 11 6 18 10 ESE -
16.09.2019 07:00:00 17,5 13,6 11 6 15 8 ESE 0,0
16.09.2019 06:00:00 18,1 13,8 11 6 16 9 SE 0,0
16.09.2019 05:00:00 18,7 14,2 9 5 18 10 ESE 0,0
16.09.2019 04:00:00 19,0 14,5 11 6 18 10 ESE 0,0
16.09.2019 03:00:00 19,6 14,6 11 6 21 11 ESE 0,0
16.09.2019 02:00:00 20,0 14,8 13 7 22 12 ESE -
16.09.2019 01:00:00 20,8 14,9 11 6 22 12 ESE 0,0
16.09.2019 00:00:00 21,1 15,2 11 6 16 9 ESE 0,0
15.09.2019 23:00:00 20,1 15,1 9 5 16 9 E 0,0
15.09.2019 22:00:00 21,0 15,5 11 6 16 9 ESE 0,0
15.09.2019 21:00:00 22,0 16,5 11 6 15 8 SE 0,0
15.09.2019 20:00:00 25,1 15,4 4 2 5 3 ESE -
15.09.2019 19:00:00 28,0 16,0 4 2 13 7 W 0,0
15.09.2019 18:00:00 29,1 16,0 5 3 15 8 W 0,0
15.09.2019 17:00:00 29,7 16,5 8 4 18 10 SW 0,0
15.09.2019 16:00:00 29,3 16,5 8 4 18 10 S 0,0
15.09.2019 15:00:00 28,8 16,4 5 3 18 10 WSW 0,0
15.09.2019 14:00:00 28,0 17,2 8 4 18 10 SW -
15.09.2019 13:00:00 25,8 17,7 8 4 15 8 WSW 0,0
15.09.2019 12:00:00 24,1 17,3 9 5 21 11 WSW 0,0
15.09.2019 11:00:00 22,8 16,8 8 4 13 7 W 0,0
15.09.2019 10:00:00 21,3 16,9 8 4 11 6 SSW 0,0
15.09.2019 09:00:00 19,4 15,9 8 4 13 7 SE 0,0
15.09.2019 08:00:00 17,0 14,8 8 4 15 8 ESE -
15.09.2019 07:00:00 16,5 14,7 9 5 15 8 ESE 0,0
15.09.2019 06:00:00 16,7 15,1 9 5 11 6 SE 0,0
15.09.2019 05:00:00 17,5 15,5 8 4 11 6 ESE 0,0
15.09.2019 04:00:00 17,7 15,7 9 5 11 6 SE 0,0
15.09.2019 03:00:00 18,6 16,0 8 4 15 8 SSE 0,0
15.09.2019 02:00:00 17,8 16,0 11 6 13 7 SE -
15.09.2019 01:00:00 18,7 15,9 5 3 9 5 E 0,0
15.09.2019 00:00:00 19,1 16,1 9 5 15 8 ESE 0,0
14.09.2019 23:00:00 19,2 16,1 9 5 11 6 SE 0,0
14.09.2019 22:00:00 20,2 16,2 8 4 11 6 ESE 0,0
14.09.2019 21:00:00 21,0 16,4 8 4 9 5 SE 0,0
14.09.2019 20:00:00 23,7 15,5 8 4 11 6 N -
14.09.2019 19:00:00 24,9 16,1 8 4 18 10 N 0,0
14.09.2019 18:00:00 26,4 16,3 11 6 18 10 NNW 0,0
14.09.2019 17:00:00 26,6 15,9 5 3 16 9 NW 0,0
14.09.2019 16:00:00 26,1 18,2 9 5 22 12 SW 0,0
14.09.2019 15:00:00 25,9 17,5 8 4 18 10 W 0,0
14.09.2019 14:00:00 24,7 17,4 9 5 18 10 SW -
14.09.2019 13:00:00 23,4 17,4 8 4 16 9 SW 0,0
14.09.2019 12:00:00 20,8 16,2 8 4 15 8 WSW 0,0
14.09.2019 11:00:00 18,2 16,0 8 4 11 6 SW 0,0
14.09.2019 10:00:00 15,5 15,5 4 2 9 5 S 0,0
14.09.2019 09:00:00 14,1 14,1 4 2 11 6 SSW 0,0
14.09.2019 08:00:00 13,3 13,3 5 3 13 7 SSW -
14.09.2019 07:00:00 12,4 12,4 9 5 13 7 S 0,0
14.09.2019 06:00:00 14,0 13,5 2 1 11 6 SW 0,0
14.09.2019 05:00:00 14,1 13,6 5 3 8 4 N 0,0
14.09.2019 04:00:00 14,7 13,9 2 1 5 3 NE 0,0
14.09.2019 03:00:00 15,8 14,3 4 2 8 4 ENE 0,0
14.09.2019 02:00:00 15,4 13,9 8 4 9 5 NE -
14.09.2019 01:00:00 16,7 14,3 4 2 15 8 WSW 0,0
14.09.2019 00:00:00 17,7 14,6 11 6 15 8 NNW 0,0
13.09.2019 23:00:00 19,6 14,6 9 5 16 9 N 0,0
13.09.2019 22:00:00 20,9 15,0 5 3 24 13 NNE 0,0
13.09.2019 21:00:00 21,9 15,5 11 6 18 10 N 0,0
13.09.2019 20:00:00 23,1 15,7 13 7 28 15 N -
13.09.2019 19:00:00 25,6 15,3 16 9 29 16 N 0,0
13.09.2019 18:00:00 26,8 15,8 16 9 29 16 N 0,0
13.09.2019 17:00:00 27,1 15,8 15 8 29 16 NNE 0,0
13.09.2019 16:00:00 27,1 15,5 15 8 28 15 NNW 0,0
13.09.2019 15:00:00 26,7 15,1 13 7 26 14 NNW 0,0
13.09.2019 14:00:00 25,7 15,7 11 6 29 16 NNW -
13.09.2019 13:00:00 24,6 15,2 13 7 24 13 NNW 0,0
13.09.2019 12:00:00 22,3 14,2 5 3 13 7 W 0,0
13.09.2019 11:00:00 19,4 13,1 8 4 15 8 SW 0,0
13.09.2019 10:00:00 19,1 12,4 5 3 9 5 W 0,0
13.09.2019 09:00:00 17,6 11,8 4 2 8 4 S 0,0
13.09.2019 08:00:00 15,5 10,7 8 4 11 6 ESE -
13.09.2019 07:00:00 14,1 9,5 9 5 13 7 ESE 0,0
13.09.2019 06:00:00 13,8 9,4 11 6 15 8 ESE 0,0
13.09.2019 05:00:00 15,0 9,4 5 3 9 5 ESE 0,0
13.09.2019 04:00:00 15,2 9,5 2 1 11 6 NE 0,0
13.09.2019 03:00:00 15,2 9,5 9 5 13 7 E 0,0
13.09.2019 02:00:00 15,1 10,1 13 7 18 10 E -
13.09.2019 01:00:00 16,6 10,0 9 5 13 7 NNW 0,0
13.09.2019 00:00:00 17,6 10,0 8 4 11 6 ENE 0,0
12.09.2019 23:00:00 17,6 10,5 8 4 9 5 E 0,0
12.09.2019 22:00:00 17,9 11,2 5 3 9 5 ESE 0,0
12.09.2019 21:00:00 18,7 11,3 5 3 9 5 ESE 0,0
12.09.2019 20:00:00 22,1 10,3 4 2 13 7 NE -
12.09.2019 19:00:00 24,2 10,8 8 4 18 10 N 0,0
12.09.2019 18:00:00 25,1 10,9 9 5 21 11 N 0,0
12.09.2019 17:00:00 25,3 8,7 11 6 22 12 N 0,0
12.09.2019 16:00:00 25,3 8,7 11 6 22 12 N 0,0
12.09.2019 15:00:00 24,6 9,3 13 7 22 12 N 0,0
12.09.2019 14:00:00 23,8 10,1 13 7 28 15 N -
12.09.2019 13:00:00 22,9 11,0 11 6 21 11 NNW 0,0
12.09.2019 12:00:00 21,0 10,8 9 5 15 8 NW 0,0
12.09.2019 11:00:00 19,4 11,2 8 4 13 7 NW 0,0
12.09.2019 10:00:00 17,4 10,0 2 1 8 4 WNW 0,0
12.09.2019 09:00:00 16,6 10,0 4 2 11 6 ENE 0,0
12.09.2019 08:00:00 14,0 7,5 5 3 11 6 ESE -
12.09.2019 07:00:00 12,9 7,1 9 5 11 6 ESE 0,0
12.09.2019 06:00:00 12,9 7,6 5 3 11 6 ESE 0,0

tt = temperature
td = dewpoint
ff = wind speed
fx = gusts
dd = wind direction
rr = precipitation

Next stations